Time;durP1;ratioP1;P1;durP2;ratioP2;P2;SDS_P1;SDS_P2;PMS_P1;PMS_P2;Temp;Humidity;BMP_temperature;BMP_pressure;BME280_temperature;BME280_humidity;BME280_pressure;Samples;Min_cycle;Max_cycle;Signal;HPM_P1;HPM_P2
2022/02/13 00:00:37;;;;;;;10.90;4.60;;;;;;;;;;5045273;28;20260;-67
2022/02/13 00:03:02;;;;;;;11.03;4.33;;;;;;;;;;5035262;28;20237;-67
2022/02/13 00:05:28;;;;;;;8.73;3.70;;;;;;;;;;5041224;28;20258;-66
2022/02/13 00:07:53;;;;;;;8.17;3.53;;;;;;;;;;5039935;28;20182;-66
2022/02/13 00:10:18;;;;;;;12.77;4.30;;;;;;;;;;5047031;28;20560;-67
2022/02/13 00:12:44;;;;;;;9.23;4.00;;;;;;;;;;5039932;28;20182;-67
2022/02/13 00:15:09;;;;;;;8.40;3.73;;;;;;;;;;5044041;28;20621;-67
2022/02/13 00:17:35;;;;;;;10.63;4.03;;;;;;;;;;5045701;28;20191;-67
2022/02/13 00:20:02;;;;;;;8.37;4.30;;;;;;;;;;5040092;28;20185;-67
2022/02/13 00:22:28;;;;;;;11.50;4.20;;;;;;;;;;5044016;28;20380;-67
2022/02/13 00:24:53;;;;;;;13.27;4.10;;;;;;;;;;5038832;28;20536;-66
2022/02/13 00:27:19;;;;;;;13.13;4.27;;;;;;;;;;5041858;28;20710;-67
2022/02/13 00:29:44;;;;;;;8.87;4.10;;;;;;;;;;5044401;28;20637;-67
2022/02/13 00:32:09;;;;;;;9.33;4.10;;;;;;;;;;5040355;28;20205;-66
2022/02/13 00:34:35;;;;;;;12.30;4.53;;;;;;;;;;5043361;28;20181;-66
2022/02/13 00:37:02;;;;;;;12.07;4.90;;;;;;;;;;5044927;28;20296;-67
2022/02/13 00:39:27;;;;;;;8.60;3.80;;;;;;;;;;5037151;28;20178;-67
2022/02/13 00:41:53;;;;;;;11.03;4.47;;;;;;;;;;5038322;28;20309;-66
2022/02/13 00:44:18;;;;;;;11.40;4.50;;;;;;;;;;5039408;28;20264;-67
2022/02/13 00:46:44;;;;;;;10.67;4.70;;;;;;;;;;5039998;28;20185;-67
2022/02/13 00:49:09;;;;;;;9.73;4.27;;;;;;;;;;5040559;28;20192;-67
2022/02/13 00:51:34;;;;;;;9.30;5.00;;;;;;;;;;5044736;28;20177;-67
2022/02/13 00:53:59;;;;;;;13.00;4.90;;;;;;;;;;5039680;28;20276;-67
2022/02/13 00:56:25;;;;;;;9.47;4.03;;;;;;;;;;5046779;28;20366;-67
2022/02/13 00:58:51;;;;;;;10.23;4.93;;;;;;;;;;5043434;28;20614;-67
2022/02/13 01:01:18;;;;;;;10.47;4.80;;;;;;;;;;5045231;28;20757;-67
2022/02/13 01:03:43;;;;;;;11.73;4.80;;;;;;;;;;5039333;28;20665;-66
2022/02/13 01:06:09;;;;;;;8.83;4.20;;;;;;;;;;5045872;28;20260;-67
2022/02/13 01:08:34;;;;;;;14.27;5.70;;;;;;;;;;5041732;28;20277;-67
2022/02/13 01:11:00;;;;;;;12.50;4.80;;;;;;;;;;5040477;28;20657;-67
2022/02/13 01:13:29;;;;;;;12.10;4.43;;;;;;;;;;5041272;28;20193;-67
2022/02/13 01:15:55;;;;;;;9.23;4.67;;;;;;;;;;5052774;28;20185;-67
2022/02/13 01:18:20;;;;;;;17.23;5.67;;;;;;;;;;5055296;28;20640;-66
2022/02/13 01:20:46;;;;;;;10.53;4.63;;;;;;;;;;5041320;28;20188;-66
2022/02/13 01:23:12;;;;;;;8.93;4.27;;;;;;;;;;5052696;28;20231;-67
2022/02/13 01:25:37;;;;;;;11.90;4.77;;;;;;;;;;5045929;28;20177;-66
2022/02/13 01:28:03;;;;;;;9.50;4.70;;;;;;;;;;5047086;28;20177;-66
2022/02/13 01:30:29;;;;;;;14.00;4.90;;;;;;;;;;5045256;28;20288;-66
2022/02/13 01:32:54;;;;;;;12.37;4.97;;;;;;;;;;5046351;28;20181;-67
2022/02/13 01:35:19;;;;;;;12.57;5.27;;;;;;;;;;5047147;28;20537;-67
2022/02/13 01:37:45;;;;;;;10.93;4.10;;;;;;;;;;5046490;28;20629;-67
2022/02/13 01:40:11;;;;;;;12.63;5.13;;;;;;;;;;5045185;28;20174;-67
2022/02/13 01:42:36;;;;;;;9.27;4.77;;;;;;;;;;5051721;28;20263;-67
2022/02/13 01:45:03;;;;;;;10.47;5.03;;;;;;;;;;5044639;28;20627;-67
2022/02/13 01:47:29;;;;;;;13.07;5.37;;;;;;;;;;5040066;28;20181;-67
2022/02/13 01:49:57;;;;;;;12.23;4.87;;;;;;;;;;5043651;28;20708;-67
2022/02/13 01:52:22;;;;;;;13.23;5.20;;;;;;;;;;5048207;28;20257;-67
2022/02/13 01:54:47;;;;;;;11.03;4.50;;;;;;;;;;5041340;28;20716;-67
2022/02/13 01:57:13;;;;;;;11.53;4.90;;;;;;;;;;5047680;28;20184;-67
2022/02/13 01:59:39;;;;;;;15.63;4.50;;;;;;;;;;5047332;28;20704;-67
2022/02/13 02:02:05;;;;;;;11.10;4.97;;;;;;;;;;5047789;28;20283;-67
2022/02/13 02:04:30;;;;;;;10.80;4.83;;;;;;;;;;5040547;28;20190;-67
2022/02/13 02:06:56;;;;;;;10.80;5.07;;;;;;;;;;5047453;28;20743;-67
2022/02/13 02:09:25;;;;;;;13.60;4.87;;;;;;;;;;5039723;28;20657;-67
2022/02/13 02:11:51;;;;;;;13.83;5.47;;;;;;;;;;5045985;28;20235;-67
2022/02/13 02:14:17;;;;;;;13.67;5.13;;;;;;;;;;5045741;28;20199;-67
2022/02/13 02:16:42;;;;;;;11.43;4.93;;;;;;;;;;5045227;28;20268;-67
2022/02/13 02:19:10;;;;;;;11.33;4.53;;;;;;;;;;5046128;28;20625;-67
2022/02/13 02:21:42;;;;;;;9.67;4.53;;;;;;;;;;5045911;28;20295;-67
2022/02/13 02:24:12;;;;;;;9.90;4.50;;;;;;;;;;5042979;28;20179;-67
2022/02/13 02:26:37;;;;;;;10.80;4.60;;;;;;;;;;5043843;28;20220;-67
2022/02/13 02:29:03;;;;;;;11.87;4.77;;;;;;;;;;5049451;28;20181;-66
2022/02/13 02:31:28;;;;;;;12.80;5.10;;;;;;;;;;5046970;28;20278;-66
2022/02/13 02:33:54;;;;;;;9.60;4.93;;;;;;;;;;5047160;28;20197;-66
2022/02/13 02:36:20;;;;;;;12.13;5.07;;;;;;;;;;5043329;28;20642;-66
2022/02/13 02:38:46;;;;;;;13.17;4.80;;;;;;;;;;5047147;28;20212;-66
2022/02/13 02:41:12;;;;;;;13.57;5.40;;;;;;;;;;5044636;28;20197;-66
2022/02/13 02:43:39;;;;;;;9.93;4.60;;;;;;;;;;5051039;28;20190;-66
2022/02/13 02:46:04;;;;;;;13.97;5.60;;;;;;;;;;5043152;28;20216;-66
2022/02/13 02:48:30;;;;;;;13.30;5.10;;;;;;;;;;5043385;28;20189;-66
2022/02/13 02:50:56;;;;;;;10.47;4.70;;;;;;;;;;5042732;28;20546;-66
2022/02/13 02:53:21;;;;;;;12.53;5.13;;;;;;;;;;5045317;28;20185;-66
2022/02/13 02:55:46;;;;;;;11.87;5.00;;;;;;;;;;5043676;28;20717;-66
2022/02/13 02:58:12;;;;;;;11.23;4.87;;;;;;;;;;5045771;28;20185;-66
2022/02/13 03:00:37;;;;;;;10.50;4.90;;;;;;;;;;5042812;28;20270;-66
2022/02/13 03:03:03;;;;;;;18.87;5.20;;;;;;;;;;5052411;28;20208;-66
2022/02/13 03:05:29;;;;;;;10.43;4.40;;;;;;;;;;5041960;28;20217;-66
2022/02/13 03:07:54;;;;;;;13.37;5.03;;;;;;;;;;5050431;28;20188;-66
2022/02/13 03:10:19;;;;;;;7.40;4.77;;;;;;;;;;5043251;28;20196;-66
2022/02/13 03:12:45;;;;;;;9.77;5.00;;;;;;;;;;5049317;28;20185;-66
2022/02/13 03:15:10;;;;;;;11.73;4.93;;;;;;;;;;5046303;28;20186;-67
2022/02/13 03:17:36;;;;;;;13.87;4.83;;;;;;;;;;5043566;28;20166;-67
2022/02/13 03:20:03;;;;;;;10.20;4.40;;;;;;;;;;5044629;28;20552;-66
2022/02/13 03:22:29;;;;;;;12.43;4.90;;;;;;;;;;5047872;28;20197;-67
2022/02/13 03:24:58;;;;;;;12.40;4.93;;;;;;;;;;5039416;28;20713;-67
2022/02/13 03:27:24;;;;;;;11.93;4.70;;;;;;;;;;5045220;28;20217;-67
2022/02/13 03:29:49;;;;;;;11.17;4.73;;;;;;;;;;5041779;28;20213;-67
2022/02/13 03:32:15;;;;;;;9.23;4.87;;;;;;;;;;5044471;28;20432;-67
2022/02/13 03:34:40;;;;;;;9.50;4.20;;;;;;;;;;5044931;28;20181;-67
2022/02/13 03:37:05;;;;;;;13.30;4.90;;;;;;;;;;5041855;28;20173;-67
2022/02/13 03:39:31;;;;;;;11.27;5.17;;;;;;;;;;5042960;28;20189;-67
2022/02/13 03:41:56;;;;;;;10.37;4.40;;;;;;;;;;5040179;28;20193;-67
2022/02/13 03:44:22;;;;;;;12.20;4.90;;;;;;;;;;5049009;28;20211;-67
2022/02/13 03:46:47;;;;;;;8.97;4.60;;;;;;;;;;5042401;28;20194;-67
2022/02/13 03:49:12;;;;;;;13.53;4.83;;;;;;;;;;5044043;28;20239;-68
2022/02/13 03:51:38;;;;;;;13.33;4.63;;;;;;;;;;5042420;28;20247;-67
2022/02/13 03:54:03;;;;;;;11.00;5.17;;;;;;;;;;5036766;28;20268;-67
2022/02/13 03:56:28;;;;;;;11.83;4.93;;;;;;;;;;5041751;28;20267;-67
2022/02/13 03:58:54;;;;;;;10.90;5.17;;;;;;;;;;5044219;28;20733;-68
2022/02/13 04:01:19;;;;;;;9.60;4.50;;;;;;;;;;5040123;28;20213;-67
2022/02/13 04:03:44;;;;;;;9.93;5.00;;;;;;;;;;5041347;28;20272;-68
2022/02/13 04:06:10;;;;;;;10.27;4.80;;;;;;;;;;5041637;28;20658;-67
2022/02/13 04:08:35;;;;;;;13.10;5.03;;;;;;;;;;5039722;28;20253;-68
2022/02/13 04:11:01;;;;;;;11.03;4.40;;;;;;;;;;5042503;28;20196;-67
2022/02/13 04:13:27;;;;;;;8.90;4.63;;;;;;;;;;5042958;28;20177;-67
2022/02/13 04:15:53;;;;;;;9.27;4.83;;;;;;;;;;5042726;28;20185;-67
2022/02/13 04:18:19;;;;;;;11.00;4.50;;;;;;;;;;5040353;28;20239;-67
2022/02/13 04:20:45;;;;;;;8.13;4.30;;;;;;;;;;5046734;28;20224;-68
2022/02/13 04:23:10;;;;;;;12.47;4.97;;;;;;;;;;5041442;28;20522;-68
2022/02/13 04:25:36;;;;;;;11.60;5.10;;;;;;;;;;5040127;28;20188;-67
2022/02/13 04:28:03;;;;;;;9.47;4.83;;;;;;;;;;5041788;28;20185;-67
2022/02/13 04:30:28;;;;;;;9.77;4.50;;;;;;;;;;5043616;28;20674;-67
2022/02/13 04:32:55;;;;;;;9.43;4.30;;;;;;;;;;5041767;28;20576;-67
2022/02/13 04:35:24;;;;;;;13.80;4.73;;;;;;;;;;5040039;28;20189;-67
2022/02/13 04:37:53;;;;;;;8.37;4.50;;;;;;;;;;5040366;28;20664;-67
2022/02/13 04:40:19;;;;;;;13.70;5.03;;;;;;;;;;5043508;28;20633;-67
2022/02/13 04:42:45;;;;;;;10.00;3.93;;;;;;;;;;5041922;28;20247;-66
2022/02/13 04:45:10;;;;;;;9.57;4.57;;;;;;;;;;5046625;28;20204;-66
2022/02/13 04:47:36;;;;;;;11.80;3.90;;;;;;;;;;5042392;28;20319;-67
2022/02/13 04:50:02;;;;;;;9.30;4.57;;;;;;;;;;5040923;28;20185;-67
2022/02/13 04:52:27;;;;;;;11.00;4.83;;;;;;;;;;5041985;28;20177;-67
2022/02/13 04:54:53;;;;;;;12.97;4.47;;;;;;;;;;5048355;28;20192;-67
2022/02/13 04:57:18;;;;;;;8.27;4.63;;;;;;;;;;5043267;28;20383;-67
2022/02/13 04:59:43;;;;;;;10.63;4.30;;;;;;;;;;5043627;28;20552;-67
2022/02/13 05:02:09;;;;;;;9.20;5.03;;;;;;;;;;5044928;28;20213;-67
2022/02/13 05:04:34;;;;;;;9.33;4.60;;;;;;;;;;5046274;28;20177;-67
2022/02/13 05:07:00;;;;;;;13.77;4.60;;;;;;;;;;5046105;28;20325;-67
2022/02/13 05:09:25;;;;;;;11.10;4.40;;;;;;;;;;5044470;28;20191;-67
2022/02/13 05:11:51;;;;;;;13.57;4.83;;;;;;;;;;5046926;28;20227;-67
2022/02/13 05:14:16;;;;;;;9.33;4.30;;;;;;;;;;5046449;28;20169;-67
2022/02/13 05:16:41;;;;;;;11.87;4.63;;;;;;;;;;5047784;28;20328;-69
2022/02/13 05:19:07;;;;;;;9.07;3.90;;;;;;;;;;5042807;28;20185;-67
2022/02/13 05:21:33;;;;;;;11.30;5.10;;;;;;;;;;5045720;28;20225;-67
2022/02/13 05:23:58;;;;;;;10.57;4.60;;;;;;;;;;5045198;28;20270;-67
2022/02/13 05:26:24;;;;;;;10.50;4.10;;;;;;;;;;5041242;28;20189;-67
2022/02/13 05:28:49;;;;;;;11.37;4.70;;;;;;;;;;5043300;28;20203;-67
2022/02/13 05:31:16;;;;;;;11.60;4.73;;;;;;;;;;5047026;28;20197;-67
2022/02/13 05:33:42;;;;;;;11.90;4.13;;;;;;;;;;5042529;28;20550;-67
2022/02/13 05:36:07;;;;;;;12.07;5.60;;;;;;;;;;5048040;28;20247;-68
2022/02/13 05:38:32;;;;;;;10.53;4.57;;;;;;;;;;5046096;28;20185;-67
2022/02/13 05:40:58;;;;;;;12.37;4.33;;;;;;;;;;5034673;28;20580;-67
2022/02/13 05:43:23;;;;;;;7.47;3.97;;;;;;;;;;5042658;28;20193;-67
2022/02/13 05:45:48;;;;;;;8.27;4.50;;;;;;;;;;5048646;28;20239;-67
2022/02/13 05:48:14;;;;;;;8.80;4.30;;;;;;;;;;5044304;28;20236;-67
2022/02/13 05:50:41;;;;;;;8.40;4.57;;;;;;;;;;5053827;28;20562;-67
2022/02/13 05:53:07;;;;;;;10.97;4.10;;;;;;;;;;5052421;28;20188;-67
2022/02/13 05:55:32;;;;;;;8.83;4.40;;;;;;;;;;5049645;28;20510;-67
2022/02/13 05:57:58;;;;;;;13.07;4.67;;;;;;;;;;5043530;28;20197;-67
2022/02/13 06:00:23;;;;;;;11.37;4.57;;;;;;;;;;5042188;28;20598;-67
2022/02/13 06:02:49;;;;;;;11.60;5.37;;;;;;;;;;5043266;28;20212;-67
2022/02/13 06:05:14;;;;;;;10.63;4.47;;;;;;;;;;5041876;28;20227;-67
2022/02/13 06:07:40;;;;;;;9.57;4.20;;;;;;;;;;5035923;28;20205;-67
2022/02/13 06:10:08;;;;;;;7.60;3.63;;;;;;;;;;5035090;28;20210;-67
2022/02/13 06:12:34;;;;;;;8.43;4.40;;;;;;;;;;5042459;28;20220;-67
2022/02/13 06:14:59;;;;;;;9.13;4.13;;;;;;;;;;5041855;28;20239;-67
2022/02/13 06:17:25;;;;;;;10.20;4.47;;;;;;;;;;5042112;28;20196;-67
2022/02/13 06:19:50;;;;;;;7.23;4.17;;;;;;;;;;5043314;28;20280;-67
2022/02/13 06:22:15;;;;;;;8.43;3.90;;;;;;;;;;5040448;28;20308;-67
2022/02/13 06:24:41;;;;;;;9.93;4.53;;;;;;;;;;5041859;28;20209;-68
2022/02/13 06:27:07;;;;;;;11.77;4.67;;;;;;;;;;5045458;28;20182;-67
2022/02/13 06:29:32;;;;;;;9.03;4.27;;;;;;;;;;5042399;28;20556;-68
2022/02/13 06:31:59;;;;;;;8.90;3.87;;;;;;;;;;5039985;28;20209;-67
2022/02/13 06:34:24;;;;;;;11.90;4.50;;;;;;;;;;5043917;28;20243;-67
2022/02/13 06:36:50;;;;;;;10.47;3.47;;;;;;;;;;5043158;28;20557;-67
2022/02/13 06:39:15;;;;;;;7.93;3.77;;;;;;;;;;5046571;28;20235;-67
2022/02/13 06:41:40;;;;;;;9.53;4.50;;;;;;;;;;5041751;28;20317;-67
2022/02/13 06:44:06;;;;;;;8.60;3.90;;;;;;;;;;5043223;28;20742;-67
2022/02/13 06:46:31;;;;;;;8.87;3.73;;;;;;;;;;5039297;28;20569;-67
2022/02/13 06:48:56;;;;;;;10.27;4.73;;;;;;;;;;5040220;28;20668;-67
2022/02/13 06:51:22;;;;;;;9.33;4.00;;;;;;;;;;5040190;28;20551;-67
2022/02/13 06:53:47;;;;;;;8.17;4.60;;;;;;;;;;5048154;28;20193;-67
2022/02/13 06:56:13;;;;;;;10.50;4.40;;;;;;;;;;5044889;28;20197;-67
2022/02/13 06:58:39;;;;;;;10.97;4.07;;;;;;;;;;5057887;28;20597;-67
2022/02/13 07:01:04;;;;;;;11.53;4.13;;;;;;;;;;5043933;28;20182;-67
2022/02/13 07:03:30;;;;;;;10.97;4.67;;;;;;;;;;5051381;28;20193;-68
2022/02/13 07:05:55;;;;;;;9.20;3.67;;;;;;;;;;5041278;28;20260;-67
2022/02/13 07:08:20;;;;;;;11.10;3.97;;;;;;;;;;5043440;28;20200;-67
2022/02/13 07:10:46;;;;;;;9.27;4.03;;;;;;;;;;5045706;28;20186;-67
2022/02/13 07:13:11;;;;;;;6.27;3.77;;;;;;;;;;5053233;28;20541;-67
2022/02/13 07:15:37;;;;;;;8.67;4.33;;;;;;;;;;5042445;28;20493;-68
2022/02/13 07:18:03;;;;;;;10.77;4.53;;;;;;;;;;5057150;28;20182;-67
2022/02/13 07:20:28;;;;;;;7.63;3.83;;;;;;;;;;5047368;28;20190;-67
2022/02/13 07:22:54;;;;;;;8.07;3.57;;;;;;;;;;5058546;28;20204;-67
2022/02/13 07:25:19;;;;;;;9.90;3.80;;;;;;;;;;5045209;28;20240;-67
2022/02/13 07:27:44;;;;;;;8.73;4.23;;;;;;;;;;5053502;28;20192;-67
2022/02/13 07:30:13;;;;;;;9.53;3.93;;;;;;;;;;5048093;28;20235;-67
2022/02/13 07:32:40;;;;;;;6.90;3.90;;;;;;;;;;5051443;28;20201;-67
2022/02/13 07:35:05;;;;;;;7.13;3.80;;;;;;;;;;5046513;28;20185;-67
2022/02/13 07:37:31;;;;;;;7.03;3.90;;;;;;;;;;5048216;28;20188;-67
2022/02/13 07:39:56;;;;;;;6.70;3.50;;;;;;;;;;5047121;28;20220;-67
2022/02/13 07:42:22;;;;;;;10.67;3.97;;;;;;;;;;5056498;28;20288;-67
2022/02/13 07:44:48;;;;;;;6.50;3.60;;;;;;;;;;5047746;28;20189;-68
2022/02/13 07:47:14;;;;;;;8.23;4.00;;;;;;;;;;5049645;28;20644;-67
2022/02/13 07:49:39;;;;;;;8.17;3.37;;;;;;;;;;5045409;28;20178;-67
2022/02/13 07:52:05;;;;;;;8.83;3.80;;;;;;;;;;5051573;28;20672;-67
2022/02/13 07:54:30;;;;;;;9.60;4.10;;;;;;;;;;5048378;28;20238;-68
2022/02/13 07:56:56;;;;;;;10.13;4.37;;;;;;;;;;5052003;28;20208;-67
2022/02/13 07:59:22;;;;;;;7.67;4.40;;;;;;;;;;5050702;28;20260;-67
2022/02/13 08:01:48;;;;;;;6.77;4.00;;;;;;;;;;5045911;28;20272;-67
2022/02/13 08:04:13;;;;;;;6.20;3.77;;;;;;;;;;5051507;28;20181;-67
2022/02/13 08:06:39;;;;;;;7.87;3.73;;;;;;;;;;5044163;28;20324;-67
2022/02/13 08:09:04;;;;;;;6.73;3.53;;;;;;;;;;5051478;28;20180;-67
2022/02/13 08:11:29;;;;;;;9.10;4.00;;;;;;;;;;5045258;28;20648;-67
2022/02/13 08:13:56;;;;;;;5.53;3.40;;;;;;;;;;5050434;28;20173;-67
2022/02/13 08:16:22;;;;;;;8.60;3.47;;;;;;;;;;5045140;28;20501;-67
2022/02/13 08:18:48;;;;;;;8.63;4.17;;;;;;;;;;5053898;28;20200;-68
2022/02/13 08:21:14;;;;;;;9.77;3.90;;;;;;;;;;5041210;28;20186;-68
2022/02/13 08:23:40;;;;;;;6.10;3.93;;;;;;;;;;5039525;28;20664;-67
2022/02/13 08:26:06;;;;;;;5.90;3.40;;;;;;;;;;5036806;28;20209;-67
2022/02/13 08:28:34;;;;;;;6.17;3.33;;;;;;;;;;5039293;28;20653;-68
2022/02/13 08:31:00;;;;;;;4.77;3.47;;;;;;;;;;5041070;28;20259;-68
2022/02/13 08:33:26;;;;;;;6.27;3.17;;;;;;;;;;5053796;28;20216;-67
2022/02/13 08:35:52;;;;;;;6.10;4.03;;;;;;;;;;5042838;28;20797;-67
2022/02/13 08:38:17;;;;;;;6.80;3.43;;;;;;;;;;5056093;28;20176;-67
2022/02/13 08:40:43;;;;;;;8.47;3.47;;;;;;;;;;5044977;28;20204;-67
2022/02/13 08:43:08;;;;;;;7.23;3.40;;;;;;;;;;5056116;28;20261;-67
2022/02/13 08:45:35;;;;;;;10.07;3.87;;;;;;;;;;5046047;28;20192;-67
2022/02/13 08:48:01;;;;;;;5.00;3.20;;;;;;;;;;5054985;28;20177;-67
2022/02/13 08:50:27;;;;;;;6.30;3.27;;;;;;;;;;5040701;28;20322;-68
2022/02/13 08:52:52;;;;;;;6.00;3.40;;;;;;;;;;5060015;28;20270;-67
2022/02/13 08:55:19;;;;;;;6.43;3.27;;;;;;;;;;5043782;28;20223;-68
2022/02/13 08:57:45;;;;;;;5.27;3.07;;;;;;;;;;5056159;28;20402;-67
2022/02/13 09:00:13;;;;;;;7.67;3.90;;;;;;;;;;5042547;28;20186;-67
2022/02/13 09:02:39;;;;;;;4.90;3.30;;;;;;;;;;5053653;28;20210;-67
2022/02/13 09:05:07;;;;;;;7.57;3.47;;;;;;;;;;5045630;28;20502;-67
2022/02/13 09:07:33;;;;;;;5.10;3.70;;;;;;;;;;5056538;28;20197;-68
2022/02/13 09:09:58;;;;;;;7.07;3.47;;;;;;;;;;5046726;28;20181;-68
2022/02/13 09:12:25;;;;;;;8.20;3.80;;;;;;;;;;5052622;28;20643;-67
2022/02/13 09:14:51;;;;;;;6.30;3.60;;;;;;;;;;5046617;28;20202;-68
2022/02/13 09:17:16;;;;;;;7.30;3.60;;;;;;;;;;5050700;28;20193;-69
2022/02/13 09:19:41;;;;;;;6.07;3.50;;;;;;;;;;5047116;28;20181;-67
2022/02/13 09:22:08;;;;;;;5.63;3.33;;;;;;;;;;5043105;28;20586;-68
2022/02/13 09:24:34;;;;;;;7.30;3.63;;;;;;;;;;5038895;28;20198;-68
2022/02/13 09:26:59;;;;;;;10.23;3.80;;;;;;;;;;5044291;28;20186;-68
2022/02/13 09:29:24;;;;;;;6.20;3.33;;;;;;;;;;5042463;28;20554;-68
2022/02/13 09:31:50;;;;;;;5.07;3.30;;;;;;;;;;5038220;28;20309;-68
2022/02/13 09:34:18;;;;;;;6.17;3.80;;;;;;;;;;5043407;28;20186;-68
2022/02/13 09:36:45;;;;;;;8.63;3.83;;;;;;;;;;5042365;28;20247;-68
2022/02/13 09:39:11;;;;;;;6.97;3.50;;;;;;;;;;5042512;28;20178;-67
2022/02/13 09:41:39;;;;;;;6.03;3.77;;;;;;;;;;5052284;28;20209;-67
2022/02/13 09:44:04;;;;;;;6.00;3.63;;;;;;;;;;5053985;28;20257;-67
2022/02/13 09:46:30;;;;;;;7.73;3.80;;;;;;;;;;5051721;28;20194;-71
2022/02/13 09:48:55;;;;;;;9.87;3.97;;;;;;;;;;5058025;28;20426;-68
2022/02/13 09:51:21;;;;;;;6.53;3.30;;;;;;;;;;5049978;28;20212;-67
2022/02/13 09:53:46;;;;;;;6.57;3.30;;;;;;;;;;5053475;28;20177;-68
2022/02/13 09:56:12;;;;;;;7.73;3.83;;;;;;;;;;5049425;28;20181;-67
2022/02/13 09:58:37;;;;;;;5.13;3.53;;;;;;;;;;5051574;28;20197;-68
2022/02/13 10:01:07;;;;;;;4.97;3.27;;;;;;;;;;5043184;28;20185;-68
2022/02/13 10:03:38;;;;;;;7.53;3.53;;;;;;;;;;5048335;28;20193;-68
2022/02/13 10:06:09;;;;;;;7.17;4.10;;;;;;;;;;5043419;28;20580;-68
2022/02/13 10:08:53;;;;;;;7.83;3.80;;;;;;;;;;5054240;28;20309;-68
2022/02/13 10:11:29;;;;;;;6.67;3.73;;;;;;;;;;5045085;28;20193;-68
2022/02/13 10:13:57;;;;;;;8.00;3.67;;;;;;;;;;5052668;28;20264;-67
2022/02/13 10:16:34;;;;;;;4.20;3.23;;;;;;;;;;5048917;28;20276;-68
2022/02/13 10:19:15;;;;;;;5.10;3.60;;;;;;;;;;5055109;28;20181;-68
2022/02/13 10:21:50;;;;;;;7.60;3.47;;;;;;;;;;5054392;28;20313;-67
2022/02/13 10:24:27;;;;;;;6.80;3.30;;;;;;;;;;5047379;28;20456;-68
2022/02/13 10:27:17;;;;;;;4.60;3.13;;;;;;;;;;5053074;28;20259;-68
2022/02/13 10:29:53;;;;;;;6.60;3.63;;;;;;;;;;5047702;28;20695;-68
2022/02/13 10:32:22;;;;;;;9.90;4.10;;;;;;;;;;5055187;28;20649;-68
2022/02/13 10:34:59;;;;;;;5.17;3.23;;;;;;;;;;5047168;28;20193;-68
2022/02/13 10:37:55;;;;;;;5.10;3.50;;;;;;;;;;5057616;28;20196;-67
2022/02/13 10:40:24;;;;;;;5.63;3.70;;;;;;;;;;5053114;28;20184;-67
2022/02/13 10:43:07;;;;;;;6.73;3.43;;;;;;;;;;5047878;28;20206;-68
2022/02/13 10:45:35;;;;;;;5.43;3.53;;;;;;;;;;5053387;28;20723;-69
2022/02/13 10:48:05;;;;;;;7.30;2.93;;;;;;;;;;5048264;28;20206;-71
2022/02/13 10:50:32;;;;;;;6.10;3.50;;;;;;;;;;5046296;28;20234;-67
2022/02/13 10:53:01;;;;;;;6.90;3.73;;;;;;;;;;5042732;28;20284;-68
2022/02/13 10:55:27;;;;;;;9.37;3.50;;;;;;;;;;5051979;28;20216;-68
2022/02/13 10:57:54;;;;;;;7.80;3.33;;;;;;;;;;5045372;28;20229;-68
2022/02/13 11:00:20;;;;;;;7.17;3.83;;;;;;;;;;5057684;28;20192;-68
2022/02/13 11:02:47;;;;;;;4.27;3.20;;;;;;;;;;5043434;28;20202;-68
2022/02/13 11:05:13;;;;;;;7.00;3.63;;;;;;;;;;5054545;28;20224;-68
2022/02/13 11:07:43;;;;;;;6.80;3.57;;;;;;;;;;5044287;28;20185;-68
2022/02/13 11:10:12;;;;;;;7.60;3.33;;;;;;;;;;5043983;28;20188;-68
2022/02/13 11:12:37;;;;;;;4.83;3.33;;;;;;;;;;5042594;28;20177;-69
2022/02/13 11:15:14;;;;;;;6.63;3.53;;;;;;;;;;5051144;28;20234;-68
2022/02/13 11:17:42;;;;;;;6.37;3.20;;;;;;;;;;5043432;28;20323;-68
2022/02/13 11:20:11;;;;;;;5.77;3.33;;;;;;;;;;5041914;28;20189;-68
2022/02/13 11:22:37;;;;;;;11.50;3.33;;;;;;;;;;5042776;28;20202;-67
2022/02/13 11:25:04;;;;;;;4.33;3.03;;;;;;;;;;5047366;28;20263;-68
2022/02/13 11:27:58;;;;;;;6.57;3.70;;;;;;;;;;5049625;28;20629;-68
2022/02/13 11:30:44;;;;;;;5.50;3.50;;;;;;;;;;5042611;28;20291;-68
2022/02/13 11:33:29;;;;;;;7.83;3.20;;;;;;;;;;5041148;28;20211;-68
2022/02/13 11:36:00;;;;;;;8.17;3.53;;;;;;;;;;5038248;28;20996;-68
2022/02/13 11:38:37;;;;;;;6.43;3.23;;;;;;;;;;5041746;28;20178;-68
2022/02/13 11:41:10;;;;;;;8.20;3.83;;;;;;;;;;5035709;28;20208;-67
2022/02/13 11:43:59;;;;;;;7.27;3.50;;;;;;;;;;5045729;28;20220;-68
2022/02/13 11:46:27;;;;;;;6.90;3.57;;;;;;;;;;5034035;28;20182;-68
2022/02/13 11:49:08;;;;;;;7.00;3.93;;;;;;;;;;5038044;28;20277;-68
2022/02/13 11:51:45;;;;;;;5.87;3.83;;;;;;;;;;5040749;28;20177;-68
2022/02/13 11:54:29;;;;;;;5.70;3.87;;;;;;;;;;5041246;28;20684;-68
2022/02/13 11:57:05;;;;;;;7.37;4.13;;;;;;;;;;5043147;28;20675;-68
2022/02/13 12:00:03;;;;;;;4.53;3.20;;;;;;;;;;5038145;28;20691;-68
2022/02/13 12:02:31;;;;;;;5.47;3.40;;;;;;;;;;5030289;28;20209;-68
2022/02/13 12:05:02;;;;;;;5.93;3.80;;;;;;;;;;5040217;28;20240;-68
2022/02/13 12:07:34;;;;;;;6.20;3.60;;;;;;;;;;5039641;28;20288;-68
2022/02/13 12:09:59;;;;;;;6.83;3.73;;;;;;;;;;5043092;28;20181;-67
2022/02/13 12:12:24;;;;;;;6.33;3.63;;;;;;;;;;5050640;28;20241;-68
2022/02/13 12:14:50;;;;;;;7.10;3.70;;;;;;;;;;5042604;28;20204;-68
2022/02/13 12:17:26;;;;;;;6.97;4.13;;;;;;;;;;5043465;28;20745;-68
2022/02/13 12:20:07;;;;;;;7.57;3.40;;;;;;;;;;5041012;28;20253;-68
2022/02/13 12:22:32;;;;;;;6.73;3.97;;;;;;;;;;5042291;28;20277;-68
2022/02/13 12:24:59;;;;;;;5.80;3.90;;;;;;;;;;5041106;28;20706;-67
2022/02/13 12:27:25;;;;;;;7.73;3.87;;;;;;;;;;5047564;28;20186;-67
2022/02/13 12:29:55;;;;;;;9.63;4.15;;;;;;;;;;5042716;28;20545;-67
2022/02/13 12:32:28;;;;;;;7.35;4.00;;;;;;;;;;5034610;28;20212;-68
2022/02/13 12:34:59;;;;;;;5.85;3.78;;;;;;;;;;5045086;28;20178;-67
2022/02/13 12:37:39;;;;;;;6.88;3.75;;;;;;;;;;5036571;28;20715;-67
2022/02/13 12:40:06;;;;;;;8.88;4.43;;;;;;;;;;5045228;28;20644;-68
2022/02/13 12:42:35;;;;;;;7.38;3.53;;;;;;;;;;5040535;28;20221;-67
2022/02/13 12:45:04;;;;;;;5.47;4.00;;;;;;;;;;5043792;28;20186;-67
2022/02/13 12:47:31;;;;;;;7.20;4.00;;;;;;;;;;5040518;28;20205;-66
2022/02/13 12:50:02;;;;;;;7.65;4.47;;;;;;;;;;5043181;28;20600;-67
2022/02/13 12:52:30;;;;;;;5.90;4.20;;;;;;;;;;5041754;28;20197;-67
2022/02/13 12:54:57;;;;;;;7.68;4.53;;;;;;;;;;5042625;28;20212;-67
2022/02/13 12:57:23;;;;;;;6.00;4.05;;;;;;;;;;5041353;28;20535;-67
2022/02/13 12:59:49;;;;;;;6.68;4.30;;;;;;;;;;5044932;28;20185;-67
2022/02/13 13:02:23;;;;;;;7.15;4.55;;;;;;;;;;5041629;28;20630;-68
2022/02/13 13:04:50;;;;;;;8.38;4.80;;;;;;;;;;5043387;28;20231;-67
2022/02/13 13:07:21;;;;;;;6.15;4.55;;;;;;;;;;5039996;28;20205;-67
2022/02/13 13:09:48;;;;;;;7.47;4.60;;;;;;;;;;5042891;28;20399;-67
2022/02/13 13:12:17;;;;;;;8.93;4.55;;;;;;;;;;5042770;28;20185;-67
2022/02/13 13:14:52;;;;;;;7.97;4.65;;;;;;;;;;5044959;28;20190;-67
2022/02/13 13:17:17;;;;;;;6.90;4.45;;;;;;;;;;5045774;28;20211;-67
2022/02/13 13:19:43;;;;;;;7.82;4.53;;;;;;;;;;5048032;28;20724;-68
2022/02/13 13:22:19;;;;;;;7.50;4.20;;;;;;;;;;5045363;28;20752;-67
2022/02/13 13:24:47;;;;;;;7.60;4.38;;;;;;;;;;5038353;28;20197;-67
2022/02/13 13:27:20;;;;;;;7.22;4.53;;;;;;;;;;5045759;28;20699;-67
2022/02/13 13:29:47;;;;;;;6.78;4.35;;;;;;;;;;5047086;28;20193;-68
2022/02/13 13:32:21;;;;;;;5.70;4.30;;;;;;;;;;5046373;28;20212;-67
2022/02/13 13:34:55;;;;;;;7.30;4.20;;;;;;;;;;5043515;28;20201;-67
2022/02/13 13:37:32;;;;;;;9.13;4.53;;;;;;;;;;5045888;28;20235;-67
2022/02/13 13:40:08;;;;;;;8.68;5.05;;;;;;;;;;5046399;28;20185;-67
2022/02/13 13:42:43;;;;;;;6.30;4.30;;;;;;;;;;5053046;28;20224;-67
2022/02/13 13:45:11;;;;;;;7.25;4.72;;;;;;;;;;5043330;28;20184;-67
2022/02/13 13:47:38;;;;;;;7.18;3.92;;;;;;;;;;5046018;28;20651;-67
2022/02/13 13:50:04;;;;;;;9.70;4.88;;;;;;;;;;5043567;28;20277;-67
2022/02/13 13:52:30;;;;;;;9.68;4.53;;;;;;;;;;5049648;28;20204;-67
2022/02/13 13:54:55;;;;;;;9.40;5.18;;;;;;;;;;5044653;28;20177;-67
2022/02/13 13:57:21;;;;;;;8.93;6.15;;;;;;;;;;5036515;28;20269;-67
2022/02/13 13:59:46;;;;;;;6.78;4.25;;;;;;;;;;5044963;28;20212;-67
2022/02/13 14:02:58;;;;;;;8.32;4.50;;;;;;;;;;5047652;28;20266;-67
2022/02/13 14:05:34;;;;;;;8.45;5.63;;;;;;;;;;5046492;28;20320;-67
2022/02/13 14:08:02;;;;;;;7.70;4.63;;;;;;;;;;5036896;28;20254;-67
2022/02/13 14:10:29;;;;;;;9.60;4.53;;;;;;;;;;5045665;28;20720;-67
2022/02/13 14:12:54;;;;;;;7.43;4.32;;;;;;;;;;5044602;28;20189;-67
2022/02/13 14:15:21;;;;;;;7.38;3.97;;;;;;;;;;5045694;28;20280;-67
2022/02/13 14:17:46;;;;;;;7.07;4.53;;;;;;;;;;5044042;28;20189;-68
2022/02/13 14:20:12;;;;;;;7.03;4.03;;;;;;;;;;5046683;28;20301;-67
2022/02/13 14:22:37;;;;;;;8.32;4.72;;;;;;;;;;5041547;28;20205;-67
2022/02/13 14:25:04;;;;;;;7.57;4.38;;;;;;;;;;5046110;28;20303;-67
2022/02/13 14:27:29;;;;;;;7.40;4.43;;;;;;;;;;5043323;28;20308;-67
2022/02/13 14:29:55;;;;;;;10.88;4.40;;;;;;;;;;5048782;28;20769;-67
2022/02/13 14:32:23;;;;;;;6.72;4.15;;;;;;;;;;5041489;28;20276;-67
2022/02/13 14:34:49;;;;;;;6.03;3.90;;;;;;;;;;5048765;28;20181;-67
2022/02/13 14:37:15;;;;;;;7.87;3.90;;;;;;;;;;5042933;28;20189;-67
2022/02/13 14:39:41;;;;;;;8.02;4.03;;;;;;;;;;5045623;28;20185;-67